Aviation Digital Data Service (ADDS)

Output produced by METARs form (1105 UTC 13 December 2017)
found at http://www.aviationweather.gov/adds/metars/
 
LATI 131050Z 15006KT 110V210 9999 FEW050 SCT110 18/06 Q1020 NOSIG
TAF LATI 130500Z 1306/1406 17010KT 9999 SCT040 BKN060 
     BECMG 1316/1318 RA SCT020CB BKN030 
     TEMPO 1318/1324 22012G26KT 3000 TSRA 
     BECMG 1402/1404 VRB04KT NSW
       
LATI 131050Z 15006KT 110V210 9999 FEW050 SCT110 18/06 Q1020 NOSIG
TAF LATI 130500Z 1306/1406 17010KT 9999 SCT040 BKN060 
     BECMG 1316/1318 RA SCT020CB BKN030 
     TEMPO 1318/1324 22012G26KT 3000 TSRA 
     BECMG 1402/1404 VRB04KT NSW